createdAt,value
2024-01-21T00:00:01.601Z,-6.67
2024-01-21T00:00:59.530Z,-6.70
2024-01-21T00:01:57.668Z,-6.64
2024-01-21T00:02:55.616Z,-6.71
2024-01-21T00:03:53.549Z,-6.72
2024-01-21T00:04:51.537Z,-6.83
2024-01-21T00:05:49.764Z,-6.67
2024-01-21T00:06:47.774Z,-6.89
2024-01-21T00:07:47.161Z,-6.79
2024-01-21T00:08:46.399Z,-6.69
2024-01-21T00:09:44.361Z,-6.77
2024-01-21T00:10:42.217Z,-6.69
2024-01-21T00:11:40.806Z,-6.76
2024-01-21T00:12:39.582Z,-6.68
2024-01-21T00:13:38.161Z,-6.72
2024-01-21T00:14:38.026Z,-6.91
2024-01-21T00:15:36.057Z,-6.80
2024-01-21T00:16:34.482Z,-6.91
2024-01-21T00:17:32.506Z,-6.90
2024-01-21T00:18:30.097Z,-6.82
2024-01-21T00:19:27.803Z,-6.87
2024-01-21T00:20:25.241Z,-6.86
2024-01-21T00:21:22.917Z,-6.86
2024-01-21T00:22:20.399Z,-6.86
2024-01-21T00:23:18.429Z,-6.98
2024-01-21T00:24:16.032Z,-6.96
2024-01-21T00:25:13.640Z,-7.02
2024-01-21T00:26:11.201Z,-6.95
2024-01-21T00:27:08.682Z,-6.93
2024-01-21T00:28:06.338Z,-6.96
2024-01-21T00:29:04.292Z,-7.05
2024-01-21T00:30:04.229Z,-7.01
2024-01-21T00:31:04.741Z,-7.06
2024-01-21T00:32:02.814Z,-7.01
2024-01-21T00:33:00.277Z,-7.12
2024-01-21T00:33:57.760Z,-6.99
2024-01-21T00:34:55.950Z,-7.02
2024-01-21T00:35:53.667Z,-7.02
2024-01-21T00:36:51.599Z,-7.07
2024-01-21T00:37:49.032Z,-7.04
2024-01-21T00:38:46.752Z,-7.05
2024-01-21T00:39:44.329Z,-7.24
2024-01-21T00:40:42.506Z,-7.09
2024-01-21T00:41:42.774Z,-7.19
2024-01-21T00:42:42.192Z,-7.12
2024-01-21T00:43:39.697Z,-7.19
2024-01-21T00:44:38.726Z,-7.11
2024-01-21T00:45:36.377Z,-7.13
2024-01-21T00:46:34.020Z,-7.12
2024-01-21T00:47:31.990Z,-7.15
2024-01-21T00:48:29.728Z,-7.24
2024-01-21T00:49:27.177Z,-7.13
2024-01-21T00:50:24.846Z,-7.15
2024-01-21T00:51:25.032Z,-7.20
2024-01-21T00:52:22.389Z,-7.13
2024-01-21T00:53:19.953Z,-7.16
2024-01-21T00:54:17.480Z,-7.22
2024-01-21T00:55:14.735Z,-7.15
2024-01-21T00:56:12.028Z,-7.15
2024-01-21T00:57:10.811Z,-7.19
2024-01-21T00:58:10.317Z,-7.25
2024-01-21T00:59:07.846Z,-7.24
2024-01-21T01:00:06.112Z,-7.14
2024-01-21T01:01:03.485Z,-7.20
2024-01-21T01:02:01.079Z,-7.24
2024-01-21T01:02:58.517Z,-7.23
2024-01-21T01:03:56.563Z,-7.24
2024-01-21T01:04:54.026Z,-7.29
2024-01-21T01:05:52.209Z,-7.25
2024-01-21T01:06:49.328Z,-7.21
2024-01-21T01:07:46.953Z,-7.29
2024-01-21T01:08:44.387Z,-7.21
2024-01-21T01:09:43.616Z,-7.44
2024-01-21T01:10:41.509Z,-7.36
2024-01-21T01:11:39.452Z,-7.40
2024-01-21T01:12:37.142Z,-7.36
2024-01-21T01:13:37.841Z,-7.34
2024-01-21T01:14:35.745Z,-7.25
2024-01-21T01:15:33.260Z,-7.25
2024-01-21T01:16:31.416Z,-7.41
2024-01-21T01:17:29.114Z,-7.30
2024-01-21T01:18:26.914Z,-7.41
2024-01-21T01:19:24.856Z,-7.31
2024-01-21T01:20:22.636Z,-7.30
2024-01-21T01:21:20.239Z,-7.25
2024-01-21T01:22:17.760Z,-7.37
2024-01-21T01:23:16.203Z,-7.30
2024-01-21T01:24:13.401Z,-7.33
2024-01-21T01:25:11.450Z,-7.54
2024-01-21T01:26:09.217Z,-7.40
2024-01-21T01:27:06.594Z,-7.42
2024-01-21T01:28:04.422Z,-7.33
2024-01-21T01:29:02.581Z,-7.36
2024-01-21T01:30:00.495Z,-7.50
2024-01-21T01:30:58.745Z,-7.41
2024-01-21T01:31:56.683Z,-7.43
2024-01-21T01:32:54.214Z,-7.46
2024-01-21T01:33:52.781Z,-7.39
2024-01-21T01:34:56.832Z,-7.36
2024-01-21T01:35:54.957Z,-7.49
2024-01-21T01:36:52.758Z,-7.45
2024-01-21T01:37:51.868Z,-7.41
2024-01-21T01:38:49.472Z,-7.44
2024-01-21T01:39:47.361Z,-7.46
2024-01-21T01:40:45.457Z,-7.55
2024-01-21T01:41:43.745Z,-7.52
2024-01-21T01:42:41.740Z,-7.68
2024-01-21T01:43:39.350Z,-7.52
2024-01-21T01:44:39.915Z,-7.66
2024-01-21T01:45:39.305Z,-7.58
2024-01-21T01:46:38.657Z,-7.64
2024-01-21T01:47:36.827Z,-7.51
2024-01-21T01:48:37.812Z,-7.49
2024-01-21T01:49:35.311Z,-7.48
2024-01-21T01:50:34.235Z,-7.48
2024-01-21T01:51:34.565Z,-7.61
2024-01-21T01:52:31.993Z,-7.50
2024-01-21T01:53:30.722Z,-7.54
2024-01-21T01:54:31.186Z,-7.57
2024-01-21T01:55:29.255Z,-7.65
2024-01-21T01:56:26.937Z,-7.52
2024-01-21T01:57:25.318Z,-7.60
2024-01-21T01:58:23.451Z,-7.53
2024-01-21T01:59:22.282Z,-7.58
2024-01-21T02:00:20.323Z,-7.55
2024-01-21T02:01:18.193Z,-7.56
2024-01-21T02:02:16.224Z,-7.67
2024-01-21T02:03:14.656Z,-7.64
2024-01-21T02:04:13.532Z,-7.58
2024-01-21T02:05:11.562Z,-7.77
2024-01-21T02:06:08.819Z,-7.72
2024-01-21T02:07:06.435Z,-7.56
2024-01-21T02:08:04.271Z,-7.62
2024-01-21T02:09:01.518Z,-7.57
2024-01-21T02:09:58.754Z,-7.70
2024-01-21T02:10:56.373Z,-7.78
2024-01-21T02:11:53.750Z,-7.84
2024-01-21T02:12:52.978Z,-7.85
2024-01-21T02:13:53.391Z,-7.71
2024-01-21T02:14:51.661Z,-7.69
2024-01-21T02:15:49.209Z,-7.72
2024-01-21T02:16:46.797Z,-7.78
2024-01-21T02:17:44.273Z,-7.69
2024-01-21T02:18:48.019Z,-7.73
2024-01-21T02:19:46.032Z,-7.78
2024-01-21T02:20:43.472Z,-7.79
2024-01-21T02:21:41.349Z,-7.71
2024-01-21T02:22:42.826Z,-7.83
2024-01-21T02:23:40.695Z,-7.71
2024-01-21T02:24:38.849Z,-7.74
2024-01-21T02:25:36.732Z,-7.94
2024-01-21T02:26:34.929Z,-7.73
2024-01-21T02:27:32.478Z,-7.73
2024-01-21T02:28:30.164Z,-7.80
2024-01-21T02:29:27.827Z,-7.72
2024-01-21T02:30:26.928Z,-7.67
2024-01-21T02:31:26.142Z,-7.74
2024-01-21T02:32:24.083Z,-7.69
2024-01-21T02:33:22.151Z,-7.61
2024-01-21T02:34:26.776Z,-7.64
2024-01-21T02:35:24.593Z,-7.71
2024-01-21T02:36:22.375Z,-7.61
2024-01-21T02:37:19.915Z,-7.77
2024-01-21T02:38:17.265Z,-7.64
2024-01-21T02:39:14.685Z,-7.61
2024-01-21T02:40:12.469Z,-7.76
2024-01-21T02:41:10.004Z,-7.62
2024-01-21T02:42:08.212Z,-7.72
2024-01-21T02:43:08.586Z,-7.68
2024-01-21T02:44:06.999Z,-7.61
2024-01-21T02:45:05.150Z,-7.68
2024-01-21T02:46:04.358Z,-7.59
2024-01-21T02:47:01.660Z,-7.72
2024-01-21T02:47:59.191Z,-7.58
2024-01-21T02:48:56.603Z,-7.68
2024-01-21T02:49:54.159Z,-7.58
2024-01-21T02:50:51.550Z,-7.77
2024-01-21T02:51:49.056Z,-7.60
2024-01-21T02:52:46.714Z,-7.67
2024-01-21T02:53:44.292Z,-7.82
2024-01-21T02:54:41.774Z,-7.67
2024-01-21T02:55:40.372Z,-7.69
2024-01-21T02:56:37.701Z,-7.67
2024-01-21T02:57:35.026Z,-7.65
2024-01-21T02:58:32.227Z,-7.73
2024-01-21T02:59:29.946Z,-7.72
2024-01-21T03:00:28.718Z,-7.76
2024-01-21T03:01:26.348Z,-7.78
2024-01-21T03:02:24.064Z,-7.68
2024-01-21T03:03:21.409Z,-7.81
2024-01-21T03:04:18.545Z,-7.72
2024-01-21T03:05:15.896Z,-7.82
2024-01-21T03:06:13.809Z,-7.71
2024-01-21T03:07:11.107Z,-7.83
2024-01-21T03:08:08.176Z,-7.71
2024-01-21T03:09:05.392Z,-7.75
2024-01-21T03:10:02.549Z,-7.68
2024-01-21T03:10:59.825Z,-7.79
2024-01-21T03:11:57.895Z,-7.71
2024-01-21T03:12:55.292Z,-7.77
2024-01-21T03:13:52.601Z,-7.77
2024-01-21T03:14:49.695Z,-7.84
2024-01-21T03:15:47.058Z,-7.88
2024-01-21T03:16:44.245Z,-7.87
2024-01-21T03:17:41.234Z,-7.78
2024-01-21T03:18:40.518Z,-7.74
2024-01-21T03:19:37.912Z,-7.78
2024-01-21T03:20:35.154Z,-8.15
2024-01-21T03:21:32.349Z,-7.96
2024-01-21T03:22:29.908Z,-7.95
2024-01-21T03:23:27.180Z,-8.08
2024-01-21T03:24:24.477Z,-7.98
2024-01-21T03:25:21.805Z,-7.86
2024-01-21T03:26:18.940Z,-7.96
2024-01-21T03:27:16.020Z,-8.02
2024-01-21T03:28:14.676Z,-7.97
2024-01-21T03:29:11.900Z,-7.91
2024-01-21T03:30:09.578Z,-7.91
2024-01-21T03:31:06.905Z,-7.99
2024-01-21T03:32:05.378Z,-7.85
2024-01-21T03:33:02.824Z,-7.83
2024-01-21T03:34:00.619Z,-7.85
2024-01-21T03:34:57.911Z,-7.91
2024-01-21T03:35:55.395Z,-7.80
2024-01-21T03:36:52.699Z,-7.78
2024-01-21T03:37:51.479Z,-7.85
2024-01-21T03:38:52.201Z,-7.80
2024-01-21T03:39:49.446Z,-7.88
2024-01-21T03:40:46.914Z,-7.81
2024-01-21T03:41:44.136Z,-7.81
2024-01-21T03:42:41.412Z,-7.82
2024-01-21T03:43:38.604Z,-7.80
2024-01-21T03:44:35.944Z,-8.03
2024-01-21T03:45:33.480Z,-7.95
2024-01-21T03:46:30.634Z,-8.09
2024-01-21T03:47:27.980Z,-7.90
2024-01-21T03:48:25.257Z,-7.87
2024-01-21T03:49:22.736Z,-7.95
2024-01-21T03:50:21.886Z,-8.05
2024-01-21T03:51:19.386Z,-7.98
2024-01-21T03:52:16.576Z,-8.10
2024-01-21T03:53:13.871Z,-7.99
2024-01-21T03:54:11.095Z,-7.86
2024-01-21T03:55:08.606Z,-7.80
2024-01-21T03:56:07.041Z,-7.91
2024-01-21T03:57:04.560Z,-7.78
2024-01-21T03:58:02.080Z,-7.78
2024-01-21T03:58:59.442Z,-7.80
2024-01-21T03:59:56.703Z,-7.98
2024-01-21T04:00:54.154Z,-7.96
2024-01-21T04:01:51.543Z,-7.92
2024-01-21T04:02:48.711Z,-8.04
2024-01-21T04:03:46.042Z,-7.92
2024-01-21T04:04:46.547Z,-7.92
2024-01-21T04:05:43.913Z,-7.89
2024-01-21T04:06:44.925Z,-7.93
2024-01-21T04:07:42.274Z,-8.09
2024-01-21T04:08:39.503Z,-7.96
2024-01-21T04:09:36.618Z,-8.03
2024-01-21T04:10:34.034Z,-8.09
2024-01-21T04:11:32.052Z,-7.92
2024-01-21T04:12:29.640Z,-7.85
2024-01-21T04:13:26.965Z,-7.93
2024-01-21T04:14:24.169Z,-8.00
2024-01-21T04:15:21.376Z,-7.87
2024-01-21T04:16:18.680Z,-7.93
2024-01-21T04:17:15.758Z,-7.86
2024-01-21T04:18:13.144Z,-7.87
2024-01-21T04:19:11.336Z,-7.94
2024-01-21T04:20:10.512Z,-7.91
2024-01-21T04:21:07.685Z,-7.93
2024-01-21T04:22:05.158Z,-7.91
2024-01-21T04:23:02.193Z,-8.00
2024-01-21T04:24:00.195Z,-7.91
2024-01-21T04:24:57.407Z,-7.98
2024-01-21T04:25:56.452Z,-7.97
2024-01-21T04:26:54.411Z,-8.09
2024-01-21T04:27:51.634Z,-7.89
2024-01-21T04:28:48.813Z,-7.85
2024-01-21T04:29:46.201Z,-7.86
2024-01-21T04:30:43.261Z,-7.86
2024-01-21T04:31:45.967Z,-7.82
2024-01-21T04:32:43.390Z,-7.86
2024-01-21T04:33:40.568Z,-7.80
2024-01-21T04:34:38.139Z,-7.87
2024-01-21T04:35:36.783Z,-7.89
2024-01-21T04:36:34.066Z,-7.97
2024-01-21T04:37:31.646Z,-7.96
2024-01-21T04:38:29.008Z,-7.88
2024-01-21T04:39:26.429Z,-8.01
2024-01-21T04:40:23.678Z,-8.08
2024-01-21T04:41:20.973Z,-7.88
2024-01-21T04:42:18.626Z,-7.83
2024-01-21T04:43:15.839Z,-7.82
2024-01-21T04:44:13.002Z,-8.03
2024-01-21T04:45:12.060Z,-7.88
2024-01-21T04:46:09.592Z,-7.86
2024-01-21T04:47:06.721Z,-8.01
2024-01-21T04:48:04.964Z,-7.89
2024-01-21T04:49:02.323Z,-7.82
2024-01-21T04:49:59.659Z,-7.81
2024-01-21T04:50:56.900Z,-7.86
2024-01-21T04:51:54.251Z,-7.93
2024-01-21T04:52:51.600Z,-7.88
2024-01-21T04:53:48.676Z,-8.02
2024-01-21T04:54:45.850Z,-7.98
2024-01-21T04:55:43.000Z,-7.96
2024-01-21T04:56:40.608Z,-8.00
2024-01-21T04:57:38.244Z,-7.90
2024-01-21T04:58:35.399Z,-7.79
2024-01-21T04:59:32.722Z,-7.85
2024-01-21T05:00:29.901Z,-7.73
2024-01-21T05:01:28.493Z,-7.74
2024-01-21T05:02:25.654Z,-7.90
2024-01-21T05:03:23.185Z,-7.82
2024-01-21T05:04:20.637Z,-7.87
2024-01-21T05:05:17.900Z,-7.94
2024-01-21T05:06:15.099Z,-7.90
2024-01-21T05:07:12.413Z,-7.88
2024-01-21T05:08:09.624Z,-7.90
2024-01-21T05:09:06.970Z,-8.06
2024-01-21T05:10:04.486Z,-7.94
2024-01-21T05:11:01.702Z,-7.93
2024-01-21T05:11:59.331Z,-8.01
2024-01-21T05:12:56.572Z,-7.96
2024-01-21T05:13:53.738Z,-7.94
2024-01-21T05:14:51.366Z,-8.04
2024-01-21T05:15:48.817Z,-7.94
2024-01-21T05:16:45.977Z,-8.11
2024-01-21T05:17:43.298Z,-7.97
2024-01-21T05:18:41.129Z,-8.08
2024-01-21T05:19:38.925Z,-8.10
2024-01-21T05:20:36.232Z,-7.99
2024-01-21T05:21:33.680Z,-7.95
2024-01-21T05:22:31.109Z,-7.97
2024-01-21T05:23:28.272Z,-7.92
2024-01-21T05:24:25.416Z,-8.15
2024-01-21T05:25:22.479Z,-8.24
2024-01-21T05:26:19.940Z,-8.19
2024-01-21T05:27:17.564Z,-8.22
2024-01-21T05:28:14.884Z,-7.99
2024-01-21T05:29:12.946Z,-7.94
2024-01-21T05:30:10.206Z,-7.98
2024-01-21T05:31:08.032Z,-7.98
2024-01-21T05:32:05.738Z,-7.95
2024-01-21T05:33:03.053Z,-8.23
2024-01-21T05:34:00.680Z,-8.06
2024-01-21T05:34:57.911Z,-8.03
2024-01-21T05:35:54.944Z,-8.11
2024-01-21T05:36:52.533Z,-8.16
2024-01-21T05:37:50.411Z,-8.07
2024-01-21T05:38:47.764Z,-8.15
2024-01-21T05:39:45.001Z,-8.14
2024-01-21T05:40:42.212Z,-8.19
2024-01-21T05:41:39.369Z,-8.13
2024-01-21T05:42:36.626Z,-8.12
2024-01-21T05:43:33.748Z,-8.17
2024-01-21T05:44:31.091Z,-8.24
2024-01-21T05:45:28.835Z,-8.13
2024-01-21T05:46:26.088Z,-8.35
2024-01-21T05:47:23.199Z,-8.23
2024-01-21T05:48:20.497Z,-8.32
2024-01-21T05:49:17.894Z,-8.13
2024-01-21T05:50:15.196Z,-8.08
2024-01-21T05:51:12.407Z,-8.23
2024-01-21T05:52:09.549Z,-8.23
2024-01-21T05:53:08.178Z,-8.18
2024-01-21T05:54:05.452Z,-8.30
2024-01-21T05:55:02.648Z,-8.26
2024-01-21T05:55:59.983Z,-8.17
2024-01-21T05:56:57.190Z,-8.33
2024-01-21T05:57:54.402Z,-8.34
2024-01-21T05:58:51.822Z,-8.27
2024-01-21T05:59:51.325Z,-8.17
2024-01-21T06:00:48.667Z,-8.18
2024-01-21T06:01:49.314Z,-8.15
2024-01-21T06:02:46.847Z,-8.36
2024-01-21T06:03:44.180Z,-8.22
2024-01-21T06:04:41.931Z,-8.31
2024-01-21T06:05:38.916Z,-8.37
2024-01-21T06:06:36.084Z,-8.20
2024-01-21T06:07:33.184Z,-8.15
2024-01-21T06:08:30.435Z,-8.25
2024-01-21T06:09:27.603Z,-8.14
2024-01-21T06:10:24.719Z,-8.12
2024-01-21T06:11:21.875Z,-8.11
2024-01-21T06:12:19.069Z,-8.17
2024-01-21T06:13:16.127Z,-8.31
2024-01-21T06:14:13.448Z,-8.20
2024-01-21T06:15:11.515Z,-8.19
2024-01-21T06:16:09.118Z,-8.17
2024-01-21T06:17:06.359Z,-8.16
2024-01-21T06:18:04.238Z,-8.19
2024-01-21T06:19:01.690Z,-8.24
2024-01-21T06:19:59.251Z,-8.18
2024-01-21T06:20:56.530Z,-8.15
2024-01-21T06:21:53.742Z,-8.34
2024-01-21T06:22:50.900Z,-8.41
2024-01-21T06:23:48.203Z,-8.36
2024-01-21T06:24:45.419Z,-8.34
2024-01-21T06:25:42.524Z,-8.33
2024-01-21T06:26:41.998Z,-8.25
2024-01-21T06:27:39.303Z,-8.36
2024-01-21T06:28:36.382Z,-8.27
2024-01-21T06:29:33.623Z,-8.27
2024-01-21T06:30:31.245Z,-8.16
2024-01-21T06:31:28.463Z,-8.18
2024-01-21T06:32:25.656Z,-8.15
2024-01-21T06:33:23.082Z,-8.21
2024-01-21T06:34:20.366Z,-8.27
2024-01-21T06:35:17.647Z,-8.16
2024-01-21T06:36:15.239Z,-8.12
2024-01-21T06:37:12.539Z,-8.29
2024-01-21T06:38:09.727Z,-8.22
2024-01-21T06:39:08.613Z,-8.21
2024-01-21T06:40:07.159Z,-8.16
2024-01-21T06:41:04.479Z,-8.18
2024-01-21T06:42:03.120Z,-8.15
2024-01-21T06:43:00.305Z,-8.21
2024-01-21T06:43:57.549Z,-8.15
2024-01-21T06:44:54.660Z,-8.36
2024-01-21T06:45:51.715Z,-8.38
2024-01-21T06:46:48.988Z,-8.17
2024-01-21T06:47:46.275Z,-8.25
2024-01-21T06:48:43.757Z,-8.19
2024-01-21T06:49:41.195Z,-8.10
2024-01-21T06:50:38.759Z,-8.07
2024-01-21T06:51:44.793Z,-8.14
2024-01-21T06:52:42.350Z,-8.21
2024-01-21T06:53:39.643Z,-8.17
2024-01-21T06:54:36.816Z,-8.13
2024-01-21T06:55:34.331Z,-8.11
2024-01-21T06:56:31.565Z,-8.15
2024-01-21T06:57:28.812Z,-8.14
2024-01-21T06:58:25.859Z,-8.18
2024-01-21T06:59:22.927Z,-8.08
2024-01-21T07:00:20.673Z,-8.06
2024-01-21T07:01:19.582Z,-8.03
2024-01-21T07:02:16.919Z,-8.08
2024-01-21T07:04:11.738Z,-8.11
2024-01-21T07:05:09.913Z,-8.04
2024-01-21T07:06:10.563Z,-8.02
2024-01-21T07:07:07.818Z,-8.09
2024-01-21T07:08:05.411Z,-8.06
2024-01-21T07:09:02.688Z,-8.10
2024-01-21T07:09:59.900Z,-7.94
2024-01-21T07:10:56.927Z,-7.91
2024-01-21T07:11:53.926Z,-7.90
2024-01-21T07:12:52.246Z,-7.83
2024-01-21T07:13:49.581Z,-7.88
2024-01-21T07:14:46.869Z,-7.91
2024-01-21T07:15:44.189Z,-8.07
2024-01-21T07:16:41.468Z,-7.93
2024-01-21T07:17:40.553Z,-8.02
2024-01-21T07:18:38.210Z,-7.98
2024-01-21T07:19:36.030Z,-7.90
2024-01-21T07:20:33.771Z,-7.77
2024-01-21T07:21:31.923Z,-7.78
2024-01-21T07:22:29.092Z,-7.83
2024-01-21T07:23:26.465Z,-7.70
2024-01-21T07:24:23.746Z,-7.70
2024-01-21T07:25:20.899Z,-7.76
2024-01-21T07:26:19.528Z,-7.88
2024-01-21T07:27:16.909Z,-7.93
2024-01-21T07:28:14.066Z,-7.71
2024-01-21T07:29:11.173Z,-7.73
2024-01-21T07:30:08.818Z,-7.76
2024-01-21T07:31:06.084Z,-7.90
2024-01-21T07:32:03.813Z,-7.69
2024-01-21T07:33:03.318Z,-7.65
2024-01-21T07:34:01.122Z,-7.57
2024-01-21T07:34:58.822Z,-7.45
2024-01-21T07:35:56.123Z,-7.51
2024-01-21T07:36:53.513Z,-7.46
2024-01-21T07:37:50.646Z,-7.38
2024-01-21T07:38:47.783Z,-7.43
2024-01-21T07:39:45.062Z,-7.42
2024-01-21T07:40:42.634Z,-7.37
2024-01-21T07:41:39.905Z,-7.40
2024-01-21T07:42:37.028Z,-7.36
2024-01-21T07:43:35.757Z,-7.36
2024-01-21T07:44:36.175Z,-7.42
2024-01-21T07:45:39.406Z,-7.36
2024-01-21T07:46:38.253Z,-7.30
2024-01-21T07:47:40.303Z,-7.29
2024-01-21T07:48:42.056Z,-7.23
2024-01-21T07:49:45.120Z,-7.17
2024-01-21T07:52:39.444Z,-7.01
2024-01-21T07:53:36.914Z,-7.10
2024-01-21T07:54:33.965Z,-7.05
2024-01-21T07:55:31.593Z,-7.06
2024-01-21T07:56:28.817Z,-7.13
2024-01-21T07:57:26.129Z,-7.10
2024-01-21T07:58:23.384Z,-7.02
2024-01-21T07:59:20.785Z,-7.00
2024-01-21T08:00:19.320Z,-6.95
2024-01-21T08:01:18.839Z,-6.91
2024-01-21T08:02:16.450Z,-6.88
2024-01-21T08:03:14.202Z,-6.72
2024-01-21T08:04:11.683Z,-6.77
2024-01-21T08:05:10.333Z,-6.79
2024-01-21T08:06:11.406Z,-6.73
2024-01-21T08:07:09.989Z,-6.68
2024-01-21T08:08:07.541Z,-6.72
2024-01-21T08:09:05.219Z,-6.71
2024-01-21T08:10:02.646Z,-6.73
2024-01-21T08:10:59.948Z,-6.74
2024-01-21T08:11:57.545Z,-6.73
2024-01-21T08:12:54.796Z,-6.67
2024-01-21T08:13:52.245Z,-6.52
2024-01-21T08:14:49.438Z,-6.48
2024-01-21T08:15:46.754Z,-6.51
2024-01-21T08:16:43.973Z,-6.51
2024-01-21T08:17:41.482Z,-6.48
2024-01-21T08:18:39.168Z,-6.47
2024-01-21T08:19:40.060Z,-6.44
2024-01-21T08:20:37.421Z,-6.38
2024-01-21T08:21:34.759Z,-6.32
2024-01-21T08:22:32.157Z,-6.29
2024-01-21T08:23:29.616Z,-6.03
2024-01-21T08:24:27.271Z,-6.02
2024-01-21T08:25:24.637Z,-5.95
2024-01-21T08:26:22.052Z,-5.99
2024-01-21T08:27:20.327Z,-6.03
2024-01-21T08:28:17.557Z,-6.03
2024-01-21T08:29:14.924Z,-6.03
2024-01-21T08:30:13.465Z,-6.03
2024-01-21T08:31:11.209Z,-5.98
2024-01-21T08:32:09.201Z,-5.84
2024-01-21T08:33:06.703Z,-5.64
2024-01-21T08:34:04.235Z,-5.51
2024-01-21T08:35:01.897Z,-5.53
2024-01-21T08:35:59.725Z,-5.54
2024-01-21T08:36:57.046Z,-5.56
2024-01-21T08:37:54.571Z,-5.52
2024-01-21T08:38:52.805Z,-5.45
2024-01-21T08:39:50.167Z,-5.42
2024-01-21T08:40:47.669Z,-5.42
2024-01-21T08:41:44.943Z,-5.40
2024-01-21T08:42:42.804Z,-5.37
2024-01-21T08:43:40.135Z,-5.34
2024-01-21T08:44:37.318Z,-5.29
2024-01-21T08:45:34.547Z,-5.27
2024-01-21T08:46:31.964Z,-5.25
2024-01-21T08:47:29.112Z,-5.22
2024-01-21T08:48:26.584Z,-5.13
2024-01-21T08:49:24.337Z,-5.08
2024-01-21T08:50:21.512Z,-5.02
2024-01-21T08:51:19.996Z,-4.99
2024-01-21T08:52:17.967Z,-4.90
2024-01-21T08:53:15.212Z,-4.88
2024-01-21T08:54:12.598Z,-4.82
2024-01-21T08:55:10.394Z,-4.76
2024-01-21T08:56:07.825Z,-4.72
2024-01-21T08:57:05.238Z,-4.67
2024-01-21T08:58:03.629Z,-4.64
2024-01-21T08:59:01.122Z,-4.46
2024-01-21T08:59:58.499Z,-4.48
2024-01-21T09:00:55.809Z,-4.44
2024-01-21T09:01:53.349Z,-4.44
2024-01-21T09:02:50.569Z,-4.29
2024-01-21T09:03:47.893Z,-4.23
2024-01-21T09:04:45.186Z,-4.20
2024-01-21T09:05:43.500Z,-4.17
2024-01-21T09:06:43.473Z,-4.15
2024-01-21T09:07:40.964Z,-4.11
2024-01-21T09:08:38.216Z,-4.06
2024-01-21T09:09:36.531Z,-3.96
2024-01-21T09:10:34.017Z,-3.95
2024-01-21T09:11:31.213Z,-3.92
2024-01-21T09:12:28.356Z,-3.89
2024-01-21T09:13:25.460Z,-3.86
2024-01-21T09:14:22.558Z,-3.81
2024-01-21T09:15:23.164Z,-3.74
2024-01-21T09:16:21.023Z,-3.65
2024-01-21T09:17:18.775Z,-3.60
2024-01-21T09:18:16.234Z,-3.58
2024-01-21T09:19:14.133Z,-3.56
2024-01-21T09:20:11.750Z,-3.42
2024-01-21T09:21:15.689Z,-3.33
2024-01-21T09:22:20.318Z,-3.35
2024-01-21T09:23:17.365Z,-3.36
2024-01-21T09:24:16.002Z,-3.37
2024-01-21T09:25:13.276Z,-3.33
2024-01-21T09:26:10.430Z,-3.35
2024-01-21T09:27:07.564Z,-3.32
2024-01-21T09:28:06.865Z,-3.25
2024-01-21T09:29:04.828Z,-3.11
2024-01-21T09:30:01.953Z,-2.90
2024-01-21T09:30:59.008Z,-2.76
2024-01-21T09:31:57.289Z,-2.71
2024-01-21T09:32:54.756Z,-2.63
2024-01-21T09:33:52.421Z,-2.56
2024-01-21T09:34:49.966Z,-2.48
2024-01-21T09:35:47.494Z,-2.37
2024-01-21T09:36:45.785Z,-2.32
2024-01-21T09:37:43.170Z,-2.27
2024-01-21T09:38:40.341Z,-2.23
2024-01-21T09:39:38.784Z,-2.18
2024-01-21T09:40:36.041Z,-2.15
2024-01-21T09:41:59.616Z,-2.17
2024-01-21T09:42:56.969Z,-2.15
2024-01-21T09:43:54.341Z,-2.15
2024-01-21T09:44:51.460Z,-2.09
2024-01-21T09:45:48.823Z,-2.00
2024-01-21T09:46:55.285Z,-1.93
2024-01-21T09:47:54.455Z,-1.83
2024-01-21T09:48:54.070Z,-1.84
2024-01-21T09:49:52.447Z,-1.84
2024-01-21T09:50:50.683Z,-1.77
2024-01-21T09:51:48.698Z,-1.82
2024-01-21T09:52:45.957Z,-1.75
2024-01-21T09:53:43.119Z,-1.71
2024-01-21T09:54:40.302Z,-1.71
2024-01-21T09:55:37.399Z,-1.59
2024-01-21T09:56:36.113Z,-1.54
2024-01-21T09:57:34.394Z,-1.47
2024-01-21T09:58:33.332Z,-1.45
2024-01-21T09:59:30.802Z,-1.39
2024-01-21T10:00:28.219Z,-1.36
2024-01-21T10:01:25.515Z,-1.37
2024-01-21T10:02:24.673Z,-1.36
2024-01-21T10:03:21.932Z,-1.31
2024-01-21T10:04:21.653Z,-1.19
2024-01-21T10:05:21.068Z,-1.14
2024-01-21T10:06:19.410Z,-1.18
2024-01-21T10:07:16.878Z,-1.15
2024-01-21T10:08:15.359Z,-1.20
2024-01-21T10:09:18.065Z,-1.16
2024-01-21T10:10:16.238Z,-1.03
2024-01-21T10:11:13.390Z,-1.14
2024-01-21T10:12:10.488Z,-1.06
2024-01-21T10:13:07.807Z,-0.99
2024-01-21T10:14:04.745Z,-0.96
2024-01-21T10:15:01.955Z,-0.93
2024-01-21T10:15:59.882Z,-0.93
2024-01-21T10:16:57.236Z,-0.95
2024-01-21T10:17:54.388Z,-0.97
2024-01-21T10:18:51.481Z,-0.77
2024-01-21T10:19:48.599Z,-0.68
2024-01-21T10:20:45.785Z,-0.72
2024-01-21T10:21:43.506Z,-0.80
2024-01-21T10:22:43.161Z,-0.69
2024-01-21T10:23:40.282Z,-0.89
2024-01-21T10:24:45.354Z,-1.07
2024-01-21T10:25:45.054Z,-0.95
2024-01-21T10:26:47.793Z,-0.82
2024-01-21T10:27:53.848Z,-0.73
2024-01-21T10:28:51.025Z,-0.67
2024-01-21T10:29:48.138Z,-0.79
2024-01-21T10:30:49.236Z,-0.66
2024-01-21T10:31:46.419Z,-0.61
2024-01-21T10:32:44.518Z,-0.60
2024-01-21T10:33:46.292Z,-0.67
2024-01-21T10:34:46.772Z,-0.59
2024-01-21T10:35:44.164Z,-0.52
2024-01-21T10:36:45.066Z,-0.30
2024-01-21T10:37:42.636Z,-0.38
2024-01-21T10:38:50.534Z,-0.33
2024-01-21T10:39:49.903Z,-0.18
2024-01-21T10:40:47.768Z,-0.19
2024-01-21T10:41:45.204Z,-0.12
2024-01-21T10:42:42.867Z,-0.18
2024-01-21T10:43:41.653Z,-0.14
2024-01-21T10:44:40.813Z,-0.16
2024-01-21T10:45:37.929Z,-0.06
2024-01-21T10:46:39.202Z,-0.26
2024-01-21T10:47:36.930Z,-0.24
2024-01-21T10:48:34.640Z,-0.04
2024-01-21T10:49:33.155Z,-0.16
2024-01-21T10:50:30.332Z,-0.16
2024-01-21T10:51:28.797Z,-0.11
2024-01-21T10:52:26.208Z,-0.05
2024-01-21T10:53:25.263Z,-0.03
2024-01-21T10:54:22.526Z,0.08
2024-01-21T10:55:19.767Z,0.10
2024-01-21T10:56:17.016Z,0.15
2024-01-21T10:57:15.256Z,0.13
2024-01-21T10:58:12.861Z,0.02
2024-01-21T10:59:10.970Z,0.11
2024-01-21T11:00:10.819Z,0.09
2024-01-21T11:01:08.420Z,0.10
2024-01-21T11:02:06.319Z,0.19
2024-01-21T11:03:25.961Z,0.17
2024-01-21T11:04:23.599Z,0.23
2024-01-21T11:05:20.827Z,0.31
2024-01-21T11:06:18.262Z,0.36
2024-01-21T11:07:19.336Z,0.44
2024-01-21T11:08:17.186Z,0.46
2024-01-21T11:09:17.975Z,0.52
2024-01-21T11:10:14.839Z,0.54
2024-01-21T11:11:18.703Z,0.57
2024-01-21T11:12:15.880Z,0.57
2024-01-21T11:13:43.039Z,0.50
2024-01-21T11:14:40.758Z,0.42
2024-01-21T11:15:37.972Z,0.55
2024-01-21T11:16:37.232Z,0.58
2024-01-21T11:17:34.334Z,0.58
2024-01-21T11:18:31.744Z,0.55
2024-01-21T11:19:39.831Z,0.58
2024-01-21T11:20:37.323Z,0.65
2024-01-21T11:21:42.536Z,0.70
2024-01-21T11:22:39.813Z,0.65
2024-01-21T11:23:36.798Z,0.71
2024-01-21T11:24:33.897Z,0.72
2024-01-21T11:25:34.220Z,0.70
2024-01-21T11:26:37.678Z,0.68
2024-01-21T11:27:34.737Z,0.78
2024-01-21T11:28:31.808Z,0.79
2024-01-21T11:29:33.559Z,0.85
2024-01-21T11:30:31.364Z,0.86
2024-01-21T11:31:33.372Z,0.86
2024-01-21T11:32:32.371Z,0.67
2024-01-21T11:33:31.908Z,0.82
2024-01-21T11:34:31.258Z,0.79
2024-01-21T11:35:29.379Z,0.93
2024-01-21T11:36:26.438Z,1.00
2024-01-21T11:37:24.000Z,0.87
2024-01-21T11:38:21.421Z,0.91
2024-01-21T11:39:23.235Z,0.82
2024-01-21T11:40:21.399Z,0.96
2024-01-21T11:41:20.464Z,1.00
2024-01-21T11:42:17.567Z,1.12
2024-01-21T11:43:14.833Z,1.13
2024-01-21T11:44:21.259Z,1.28
2024-01-21T11:45:18.866Z,1.24
2024-01-21T11:46:16.030Z,1.32
2024-01-21T11:47:13.478Z,1.35
2024-01-21T11:48:14.098Z,1.37
2024-01-21T11:49:11.452Z,1.32
2024-01-21T11:50:08.968Z,1.41
2024-01-21T11:51:06.171Z,1.49
2024-01-21T11:52:08.693Z,1.31
2024-01-21T11:53:05.970Z,1.35
2024-01-21T11:54:03.040Z,1.45
2024-01-21T11:55:00.679Z,1.49
2024-01-21T11:55:58.042Z,1.40
2024-01-21T11:56:55.327Z,1.62
2024-01-21T11:57:52.480Z,1.61
2024-01-21T11:58:50.321Z,1.69
2024-01-21T11:59:47.563Z,1.70
2024-01-21T12:00:44.934Z,1.74
2024-01-21T12:01:42.605Z,1.79
2024-01-21T12:02:39.879Z,1.71
2024-01-21T12:03:37.067Z,1.76
2024-01-21T12:04:34.414Z,1.76
2024-01-21T12:05:31.448Z,1.83
2024-01-21T12:06:28.909Z,1.88
2024-01-21T12:07:27.231Z,1.89
2024-01-21T12:08:24.478Z,1.89
2024-01-21T12:09:23.347Z,1.93
2024-01-21T12:10:20.667Z,1.91
2024-01-21T12:11:17.850Z,1.78
2024-01-21T12:12:14.824Z,1.74
2024-01-21T12:13:11.885Z,1.67
2024-01-21T12:14:14.688Z,1.71
2024-01-21T12:15:11.733Z,1.70
2024-01-21T12:16:09.598Z,1.67
2024-01-21T12:17:06.929Z,1.90
2024-01-21T12:18:04.399Z,1.92
2024-01-21T12:19:02.417Z,1.66
2024-01-21T12:19:59.582Z,1.69
2024-01-21T12:20:56.717Z,1.72
2024-01-21T12:21:53.970Z,1.75
2024-01-21T12:22:51.523Z,1.80
2024-01-21T12:23:49.998Z,1.90
2024-01-21T12:24:47.043Z,1.83
2024-01-21T12:25:44.439Z,1.80
2024-01-21T12:26:46.365Z,1.83
2024-01-21T12:27:47.270Z,1.88
2024-01-21T12:29:05.406Z,1.82
2024-01-21T12:30:02.565Z,1.78
2024-01-21T12:31:00.352Z,1.89
2024-01-21T12:31:57.429Z,1.97
2024-01-21T12:32:59.113Z,2.01
2024-01-21T12:34:04.282Z,2.10
2024-01-21T12:35:02.292Z,2.18